UAE707 OMDB-FSIA
Flight info
| Callsign | UAE707 |
|---|---|
| Flight time | 4h 0m |
| Altitude | 34000 |
| Route | ANVIX R401 GIDIS G783 ELUDA/N0488F360 G783 UKRAG/N0485F370 L710 DEDSO/N0492F360 R401 DAPAB/N0489F380 R401 SUHIL UM314 IMTIP DCT EPNOR T144 ROUTY |
| Aircraft | B77W/H-SDE1E2E3FGHIJ2J3J4J5M1RWXY/LB1D1 |
Departure
| Time | 2026-04-16 04:47 |
|---|---|
| Airport | Dubai International Airport (OMDB) |
Arrival
| Time | 2026-04-16 08:47 |
|---|---|
| Airport | Seychelles International Airport (FSIA) |
| Time | Latitude | Longitude | Altitude | Speed | Heading |
|---|---|---|---|---|---|
| 2026-04-16 04:17 | 25.24825 | 55.36019 | 29 ft | 0 kts | 22° |
| 2026-04-16 04:31 | 25.24802 | 55.36008 | 28 ft | 4 kts | 26° |
| 2026-04-16 04:32 | 25.24786 | 55.35998 | 32 ft | 4 kts | 32° |
| 2026-04-16 04:32 | 25.24765 | 55.35981 | 32 ft | 4 kts | 52° |
| 2026-04-16 04:32 | 25.24756 | 55.35959 | 32 ft | 3 kts | 115° |
| 2026-04-16 04:32 | 25.24757 | 55.35955 | 32 ft | 10 kts | 123° |
| 2026-04-16 04:38 | 25.24752 | 55.35964 | 31 ft | 3 kts | 122° |
| 2026-04-16 04:38 | 25.24738 | 55.35991 | 30 ft | 5 kts | 121° |
| 2026-04-16 04:38 | 25.24714 | 55.36034 | 30 ft | 8 kts | 121° |
| 2026-04-16 04:38 | 25.24680 | 55.36094 | 31 ft | 11 kts | 122° |
| 2026-04-16 04:39 | 25.24632 | 55.36180 | 29 ft | 15 kts | 122° |
| 2026-04-16 04:39 | 25.24570 | 55.36289 | 29 ft | 18 kts | 121° |
| 2026-04-16 04:39 | 25.24501 | 55.36414 | 30 ft | 19 kts | 122° |
| 2026-04-16 04:39 | 25.24453 | 55.36551 | 29 ft | 20 kts | 90° |
| 2026-04-16 04:40 | 25.24519 | 55.36680 | 31 ft | 19 kts | 39° |
| 2026-04-16 04:40 | 25.24634 | 55.36759 | 29 ft | 19 kts | 31° |
| 2026-04-16 04:40 | 25.24749 | 55.36836 | 27 ft | 19 kts | 31° |
| 2026-04-16 04:40 | 25.24807 | 55.36918 | 28 ft | 13 kts | 95° |
| 2026-04-16 04:41 | 25.24763 | 55.37014 | 28 ft | 15 kts | 121° |
| 2026-04-16 04:41 | 25.24706 | 55.37118 | 28 ft | 17 kts | 121° |
| 2026-04-16 04:41 | 25.24641 | 55.37231 | 28 ft | 18 kts | 123° |
| 2026-04-16 04:41 | 25.24569 | 55.37356 | 28 ft | 20 kts | 120° |
| 2026-04-16 04:42 | 25.24502 | 55.37479 | 28 ft | 19 kts | 122° |
| 2026-04-16 04:42 | 25.24432 | 55.37605 | 27 ft | 20 kts | 121° |
| 2026-04-16 04:42 | 25.24357 | 55.37738 | 28 ft | 18 kts | 122° |
| 2026-04-16 04:42 | 25.24289 | 55.37857 | 28 ft | 18 kts | 122° |
| 2026-04-16 04:43 | 25.24222 | 55.37977 | 28 ft | 18 kts | 121° |
| 2026-04-16 04:43 | 25.24156 | 55.38095 | 28 ft | 18 kts | 122° |
| 2026-04-16 04:43 | 25.24087 | 55.38219 | 28 ft | 19 kts | 122° |
| 2026-04-16 04:43 | 25.24016 | 55.38346 | 28 ft | 20 kts | 122° |
| 2026-04-16 04:44 | 25.23943 | 55.38474 | 26 ft | 20 kts | 122° |
| 2026-04-16 04:44 | 25.23871 | 55.38603 | 28 ft | 20 kts | 122° |
| 2026-04-16 04:44 | 25.23799 | 55.38732 | 28 ft | 20 kts | 121° |
| 2026-04-16 04:44 | 25.23725 | 55.38861 | 28 ft | 17 kts | 122° |
| 2026-04-16 04:45 | 25.23661 | 55.38973 | 28 ft | 16 kts | 122° |
| 2026-04-16 04:45 | 25.23661 | 55.39047 | 28 ft | 10 kts | 41° |
| 2026-04-16 04:45 | 25.23727 | 55.39049 | 32 ft | 10 kts | 345° |
| 2026-04-16 04:45 | 25.23790 | 55.39023 | 35 ft | 10 kts | 337° |
| 2026-04-16 04:46 | 25.23857 | 55.38988 | 35 ft | 12 kts | 328° |
| 2026-04-16 04:46 | 25.23909 | 55.38915 | 34 ft | 13 kts | 301° |
| 2026-04-16 04:46 | 25.23998 | 55.38753 | 34 ft | 48 kts | 301° |
| 2026-04-16 04:46 | 25.24320 | 55.38174 | 37 ft | 127 kts | 301° |
| 2026-04-16 04:47 | 25.24897 | 55.37126 | 108 ft | 181 kts | 298° |
| 2026-04-16 04:47 | 25.25575 | 55.35995 | 831 ft | 178 kts | 301° |
| 2026-04-16 04:47 | 25.26258 | 55.34838 | 1628 ft | 182 kts | 302° |
| 2026-04-16 04:47 | 25.26998 | 55.33675 | 2156 ft | 186 kts | 303° |
| 2026-04-16 04:48 | 25.27742 | 55.32484 | 2414 ft | 193 kts | 302° |
| 2026-04-16 04:48 | 25.28501 | 55.31245 | 2380 ft | 195 kts | 302° |
| 2026-04-16 04:48 | 25.29132 | 55.29967 | 2373 ft | 187 kts | 281° |
| 2026-04-16 04:48 | 25.29120 | 55.28533 | 2389 ft | 191 kts | 254° |
| 2026-04-16 04:49 | 25.28577 | 55.27206 | 2419 ft | 193 kts | 245° |
| 2026-04-16 04:49 | 25.28008 | 55.25868 | 2481 ft | 196 kts | 247° |
| 2026-04-16 04:49 | 25.27428 | 55.24485 | 2399 ft | 196 kts | 246° |
| 2026-04-16 04:49 | 25.26858 | 55.23135 | 2400 ft | 193 kts | 246° |
| 2026-04-16 04:50 | 25.26291 | 55.21799 | 2388 ft | 192 kts | 246° |
| 2026-04-16 04:50 | 25.25713 | 55.20431 | 2503 ft | 206 kts | 246° |
| 2026-04-16 04:50 | 25.25082 | 55.18944 | 2975 ft | 221 kts | 246° |
| 2026-04-16 04:50 | 25.24285 | 55.17499 | 3375 ft | 226 kts | 223° |
| 2026-04-16 04:51 | 25.22862 | 55.16690 | 3360 ft | 246 kts | 190° |
| 2026-04-16 04:51 | 25.21149 | 55.16762 | 3832 ft | 249 kts | 178° |
| 2026-04-16 04:51 | 25.19420 | 55.17057 | 4017 ft | 253 kts | 160° |
| 2026-04-16 04:51 | 25.17993 | 55.18229 | 4301 ft | 269 kts | 126° |
| 2026-04-16 04:52 | 25.17025 | 55.20074 | 4695 ft | 285 kts | 116° |
| 2026-04-16 04:52 | 25.16104 | 55.22043 | 5403 ft | 290 kts | 117° |
| 2026-04-16 04:52 | 25.15159 | 55.24035 | 5860 ft | 295 kts | 117° |
| 2026-04-16 04:52 | 25.14188 | 55.26068 | 5898 ft | 303 kts | 117° |
| 2026-04-16 04:53 | 25.13217 | 55.28094 | 6304 ft | 303 kts | 117° |
| 2026-04-16 04:53 | 25.12233 | 55.30145 | 7026 ft | 301 kts | 117° |
| 2026-04-16 04:53 | 25.11244 | 55.32199 | 7402 ft | 305 kts | 117° |
| 2026-04-16 04:53 | 25.10270 | 55.34301 | 7401 ft | 310 kts | 115° |
| 2026-04-16 04:54 | 25.09382 | 55.36468 | 7705 ft | 309 kts | 113° |
| 2026-04-16 04:54 | 25.08509 | 55.38632 | 8466 ft | 308 kts | 114° |
| 2026-04-16 04:54 | 25.07632 | 55.40784 | 8904 ft | 309 kts | 114° |
| 2026-04-16 04:54 | 25.06752 | 55.42977 | 8899 ft | 314 kts | 113° |
| 2026-04-16 04:55 | 25.05901 | 55.45196 | 8922 ft | 314 kts | 113° |
| 2026-04-16 04:55 | 25.05067 | 55.47387 | 9382 ft | 314 kts | 113° |
| 2026-04-16 04:55 | 25.04217 | 55.49607 | 9874 ft | 314 kts | 113° |
| 2026-04-16 04:55 | 25.03360 | 55.51835 | 9921 ft | 320 kts | 114° |
| 2026-04-16 04:56 | 25.02458 | 55.54171 | 10112 ft | 344 kts | 114° |
| 2026-04-16 04:56 | 25.01430 | 55.56655 | 10282 ft | 369 kts | 118° |
| 2026-04-16 04:56 | 25.00100 | 55.59172 | 10524 ft | 390 kts | 123° |
| 2026-04-16 04:56 | 24.98635 | 55.61733 | 11139 ft | 399 kts | 123° |
| 2026-04-16 04:57 | 24.97160 | 55.64351 | 11934 ft | 405 kts | 122° |
| 2026-04-16 04:57 | 24.95718 | 55.66983 | 12895 ft | 408 kts | 122° |
| 2026-04-16 04:57 | 24.94259 | 55.69676 | 13797 ft | 412 kts | 122° |
| 2026-04-16 04:57 | 24.92673 | 55.72337 | 14533 ft | 418 kts | 127° |
| 2026-04-16 04:58 | 24.90935 | 55.74926 | 15300 ft | 423 kts | 129° |
| 2026-04-16 04:58 | 24.89149 | 55.77515 | 16103 ft | 427 kts | 129° |
| 2026-04-16 04:58 | 24.87356 | 55.80150 | 16890 ft | 432 kts | 128° |
| 2026-04-16 04:58 | 24.85561 | 55.82837 | 17671 ft | 438 kts | 128° |
| 2026-04-16 04:59 | 24.83752 | 55.85565 | 18411 ft | 444 kts | 128° |
| 2026-04-16 04:59 | 24.81911 | 55.88311 | 19080 ft | 448 kts | 129° |
| 2026-04-16 04:59 | 24.79920 | 55.90919 | 19638 ft | 446 kts | 141° |
| 2026-04-16 04:59 | 24.77348 | 55.92709 | 20172 ft | 444 kts | 160° |
| 2026-04-16 05:00 | 24.74403 | 55.93659 | 20881 ft | 441 kts | 175° |
| 2026-04-16 05:00 | 24.71367 | 55.93772 | 21649 ft | 436 kts | 186° |
| 2026-04-16 05:00 | 24.68327 | 55.93591 | 22313 ft | 439 kts | 186° |
| 2026-04-16 05:00 | 24.65251 | 55.93447 | 22920 ft | 445 kts | 185° |
| 2026-04-16 05:01 | 24.62186 | 55.93071 | 23407 ft | 445 kts | 197° |
| 2026-04-16 05:01 | 24.59277 | 55.91940 | 23913 ft | 444 kts | 208° |
| 2026-04-16 05:01 | 24.56633 | 55.90221 | 24539 ft | 440 kts | 220° |
| 2026-04-16 05:01 | 24.54352 | 55.88071 | 25107 ft | 439 kts | 224° |
| 2026-04-16 05:02 | 24.52078 | 55.85812 | 25619 ft | 443 kts | 224° |
| 2026-04-16 05:02 | 24.49786 | 55.83539 | 26152 ft | 445 kts | 224° |
| 2026-04-16 05:02 | 24.47468 | 55.81271 | 26745 ft | 446 kts | 224° |
| 2026-04-16 05:02 | 24.45142 | 55.79021 | 27383 ft | 447 kts | 223° |
| 2026-04-16 05:03 | 24.42795 | 55.76765 | 27840 ft | 451 kts | 223° |
| 2026-04-16 05:03 | 24.40420 | 55.74489 | 28251 ft | 455 kts | 223° |
| 2026-04-16 05:03 | 24.38026 | 55.72196 | 28738 ft | 458 kts | 223° |
| 2026-04-16 05:04 | 24.33255 | 55.67602 | 29640 ft | 462 kts | 223° |
| 2026-04-16 05:04 | 24.30840 | 55.65269 | 30035 ft | 464 kts | 223° |
| 2026-04-16 05:04 | 24.28305 | 55.63073 | 30410 ft | 467 kts | 216° |
| 2026-04-16 05:04 | 24.25505 | 55.61263 | 30895 ft | 467 kts | 210° |
| 2026-04-16 05:05 | 24.22574 | 55.59746 | 31466 ft | 465 kts | 206° |
| 2026-04-16 05:05 | 24.19527 | 55.58569 | 32007 ft | 465 kts | 199° |
| 2026-04-16 05:05 | 24.16409 | 55.57659 | 32459 ft | 464 kts | 198° |
| 2026-04-16 05:05 | 24.13279 | 55.56780 | 32885 ft | 463 kts | 198° |
| 2026-04-16 05:06 | 24.10209 | 55.55911 | 33349 ft | 461 kts | 199° |
| 2026-04-16 05:06 | 24.07121 | 55.55016 | 33844 ft | 457 kts | 199° |
| 2026-04-16 05:06 | 24.04050 | 55.54109 | 33937 ft | 460 kts | 199° |
| 2026-04-16 05:07 | 23.97881 | 55.52276 | 33940 ft | 460 kts | 199° |
| 2026-04-16 05:07 | 23.91687 | 55.50429 | 33937 ft | 462 kts | 199° |
| 2026-04-16 05:08 | 23.85485 | 55.48585 | 33937 ft | 462 kts | 199° |
| 2026-04-16 05:08 | 23.79318 | 55.46749 | 33935 ft | 463 kts | 200° |
| 2026-04-16 05:09 | 23.73104 | 55.44897 | 33950 ft | 463 kts | 200° |
| 2026-04-16 05:09 | 23.66896 | 55.43048 | 33934 ft | 463 kts | 200° |
| 2026-04-16 05:10 | 23.60721 | 55.41210 | 33946 ft | 463 kts | 200° |
| 2026-04-16 05:10 | 23.54444 | 55.39586 | 33948 ft | 468 kts | 191° |
| 2026-04-16 05:11 | 23.47862 | 55.39636 | 33955 ft | 479 kts | 179° |
| 2026-04-16 05:11 | 23.41302 | 55.41336 | 33958 ft | 488 kts | 169° |
| 2026-04-16 05:12 | 23.34823 | 55.43443 | 33946 ft | 490 kts | 169° |
| 2026-04-16 05:12 | 23.28284 | 55.45566 | 33951 ft | 491 kts | 169° |
| 2026-04-16 05:13 | 23.21712 | 55.47653 | 33951 ft | 492 kts | 169° |
| 2026-04-16 05:13 | 23.15125 | 55.49728 | 33951 ft | 493 kts | 169° |
| 2026-04-16 05:14 | 23.08529 | 55.51808 | 33951 ft | 494 kts | 169° |
| 2026-04-16 05:14 | 23.01966 | 55.53872 | 33951 ft | 494 kts | 169° |
| 2026-04-16 05:15 | 22.95341 | 55.55899 | 33948 ft | 495 kts | 170° |
| 2026-04-16 05:15 | 22.88712 | 55.57912 | 33950 ft | 495 kts | 169° |
| 2026-04-16 05:16 | 22.82086 | 55.59931 | 33948 ft | 495 kts | 169° |
| 2026-04-16 05:16 | 22.75503 | 55.61939 | 33955 ft | 495 kts | 169° |
| 2026-04-16 05:17 | 22.68877 | 55.63959 | 33954 ft | 495 kts | 169° |
| 2026-04-16 05:17 | 22.62254 | 55.65974 | 33954 ft | 494 kts | 169° |
| 2026-04-16 05:18 | 22.55636 | 55.67999 | 33951 ft | 494 kts | 169° |
| 2026-04-16 05:18 | 22.49028 | 55.70026 | 33953 ft | 494 kts | 169° |
| 2026-04-16 05:19 | 22.42464 | 55.72037 | 33952 ft | 494 kts | 169° |
| 2026-04-16 05:19 | 22.35855 | 55.74058 | 33950 ft | 493 kts | 169° |
| 2026-04-16 05:20 | 22.29247 | 55.76077 | 33955 ft | 493 kts | 169° |
| 2026-04-16 05:20 | 22.22618 | 55.77540 | 33954 ft | 486 kts | 179° |
| 2026-04-16 05:21 | 22.15895 | 55.78168 | 33951 ft | 485 kts | 180° |
| 2026-04-16 05:21 | 22.09169 | 55.78792 | 33953 ft | 486 kts | 180° |
| 2026-04-16 05:22 | 22.02428 | 55.79458 | 33953 ft | 487 kts | 179° |
| 2026-04-16 05:22 | 21.95722 | 55.80135 | 33952 ft | 487 kts | 179° |
| 2026-04-16 05:23 | 21.88975 | 55.80816 | 33949 ft | 487 kts | 179° |
| 2026-04-16 05:23 | 21.82220 | 55.81495 | 33950 ft | 487 kts | 179° |
| 2026-04-16 05:24 | 21.75471 | 55.82171 | 33951 ft | 487 kts | 179° |
| 2026-04-16 05:24 | 21.68731 | 55.82846 | 33954 ft | 487 kts | 179° |
| 2026-04-16 05:25 | 21.62034 | 55.83502 | 33953 ft | 486 kts | 179° |
| 2026-04-16 05:25 | 21.55293 | 55.84158 | 33951 ft | 486 kts | 179° |
| 2026-04-16 05:26 | 21.48545 | 55.84817 | 33949 ft | 487 kts | 179° |
| 2026-04-16 05:26 | 21.41795 | 55.85476 | 33951 ft | 487 kts | 179° |
| 2026-04-16 05:27 | 21.35078 | 55.86132 | 33950 ft | 488 kts | 179° |
| 2026-04-16 05:27 | 21.28307 | 55.86792 | 33955 ft | 489 kts | 179° |
| 2026-04-16 05:28 | 21.21518 | 55.87448 | 33950 ft | 490 kts | 179° |
| 2026-04-16 05:28 | 21.14716 | 55.88101 | 33953 ft | 491 kts | 179° |
| 2026-04-16 05:29 | 21.07895 | 55.88753 | 33994 ft | 504 kts | 178° |
| 2026-04-16 05:29 | 21.00801 | 55.89433 | 33963 ft | 519 kts | 178° |
| 2026-04-16 05:30 | 20.93537 | 55.90132 | 33958 ft | 529 kts | 178° |
| 2026-04-16 05:30 | 20.86208 | 55.90838 | 33951 ft | 529 kts | 178° |
| 2026-04-16 05:31 | 20.78921 | 55.91549 | 33951 ft | 529 kts | 178° |
| 2026-04-16 05:31 | 20.71609 | 55.92271 | 33943 ft | 527 kts | 178° |
| 2026-04-16 05:32 | 20.64323 | 55.92988 | 33950 ft | 525 kts | 178° |
| 2026-04-16 05:32 | 20.57060 | 55.93700 | 33940 ft | 524 kts | 178° |
| 2026-04-16 05:33 | 20.49850 | 55.94405 | 33957 ft | 523 kts | 178° |
| 2026-04-16 05:33 | 20.42608 | 55.95114 | 33956 ft | 522 kts | 178° |
| 2026-04-16 05:34 | 20.35367 | 55.95822 | 33955 ft | 522 kts | 178° |
| 2026-04-16 05:34 | 20.28130 | 55.96525 | 33953 ft | 523 kts | 178° |
| 2026-04-16 05:35 | 20.20934 | 55.97208 | 33956 ft | 523 kts | 178° |
| 2026-04-16 05:35 | 20.13686 | 55.97896 | 33956 ft | 523 kts | 178° |
| 2026-04-16 05:36 | 20.06439 | 55.98501 | 33954 ft | 521 kts | 181° |
| 2026-04-16 05:36 | 19.99200 | 55.98686 | 33953 ft | 520 kts | 182° |
| 2026-04-16 05:37 | 19.92013 | 55.98812 | 33951 ft | 520 kts | 182° |
| 2026-04-16 05:37 | 19.84779 | 55.98968 | 33956 ft | 520 kts | 182° |
| 2026-04-16 05:38 | 19.77557 | 55.99145 | 33953 ft | 519 kts | 182° |
| 2026-04-16 05:38 | 19.70330 | 55.99323 | 33958 ft | 519 kts | 182° |
| 2026-04-16 05:39 | 19.63157 | 55.99497 | 33961 ft | 519 kts | 182° |
| 2026-04-16 05:39 | 19.55941 | 55.99671 | 33965 ft | 518 kts | 182° |
| 2026-04-16 05:40 | 19.48731 | 55.99845 | 33964 ft | 518 kts | 182° |
| 2026-04-16 05:40 | 19.41527 | 56.00020 | 33964 ft | 518 kts | 182° |
| 2026-04-16 05:41 | 19.34371 | 56.00194 | 33972 ft | 518 kts | 182° |
| 2026-04-16 05:41 | 19.27173 | 56.00369 | 33968 ft | 517 kts | 182° |
| 2026-04-16 05:42 | 19.19972 | 56.00544 | 33969 ft | 517 kts | 182° |
| 2026-04-16 05:42 | 19.12780 | 56.00718 | 33974 ft | 517 kts | 182° |
| 2026-04-16 05:43 | 19.05585 | 56.00892 | 33972 ft | 517 kts | 182° |
| 2026-04-16 05:43 | 18.98461 | 56.00898 | 33978 ft | 513 kts | 188° |
| 2026-04-16 05:44 | 18.91469 | 55.99745 | 33977 ft | 506 kts | 199° |
| 2026-04-16 05:44 | 18.84665 | 55.97872 | 33983 ft | 506 kts | 199° |
| 2026-04-16 05:45 | 18.77848 | 55.95998 | 33977 ft | 506 kts | 199° |
| 2026-04-16 05:45 | 18.71059 | 55.94172 | 33983 ft | 507 kts | 198° |
| 2026-04-16 05:46 | 18.64214 | 55.92351 | 33979 ft | 508 kts | 198° |
| 2026-04-16 05:46 | 18.57366 | 55.90532 | 33976 ft | 508 kts | 198° |
| 2026-04-16 05:47 | 18.50511 | 55.88711 | 33982 ft | 508 kts | 198° |
| 2026-04-16 05:47 | 18.43699 | 55.86901 | 33978 ft | 508 kts | 198° |
| 2026-04-16 05:48 | 18.36835 | 55.85078 | 33975 ft | 509 kts | 198° |
| 2026-04-16 05:48 | 18.29961 | 55.83255 | 33982 ft | 510 kts | 198° |
| 2026-04-16 05:49 | 18.23127 | 55.81443 | 33983 ft | 510 kts | 198° |
| 2026-04-16 05:49 | 18.16250 | 55.79622 | 33976 ft | 510 kts | 198° |
| 2026-04-16 05:50 | 18.09368 | 55.77801 | 33971 ft | 510 kts | 198° |
| 2026-04-16 05:50 | 18.02493 | 55.75982 | 33966 ft | 509 kts | 198° |
| 2026-04-16 05:51 | 17.95546 | 55.74432 | 33966 ft | 513 kts | 191° |
| 2026-04-16 05:51 | 17.88500 | 55.73551 | 33966 ft | 514 kts | 190° |
| 2026-04-16 05:52 | 17.81400 | 55.72706 | 33955 ft | 513 kts | 191° |
| 2026-04-16 05:52 | 17.74313 | 55.71824 | 33961 ft | 513 kts | 191° |
| 2026-04-16 05:53 | 17.67279 | 55.70926 | 33954 ft | 512 kts | 191° |
| 2026-04-16 05:53 | 17.60202 | 55.70018 | 33957 ft | 512 kts | 191° |
| 2026-04-16 05:54 | 17.53137 | 55.69115 | 33955 ft | 512 kts | 191° |
| 2026-04-16 05:54 | 17.46068 | 55.68213 | 33955 ft | 512 kts | 191° |
| 2026-04-16 05:55 | 17.38996 | 55.67313 | 33959 ft | 512 kts | 191° |
| 2026-04-16 05:55 | 17.31972 | 55.66419 | 33956 ft | 512 kts | 191° |
| 2026-04-16 05:56 | 17.24896 | 55.65519 | 33954 ft | 512 kts | 191° |
| 2026-04-16 05:56 | 17.17813 | 55.64619 | 33943 ft | 513 kts | 191° |
| 2026-04-16 05:57 | 17.10769 | 55.63724 | 33959 ft | 513 kts | 191° |
| 2026-04-16 05:57 | 17.03674 | 55.62824 | 33948 ft | 514 kts | 191° |
| 2026-04-16 05:58 | 16.96567 | 55.61922 | 33953 ft | 515 kts | 191° |
| 2026-04-16 05:58 | 16.89454 | 55.61021 | 33955 ft | 515 kts | 191° |
| 2026-04-16 05:59 | 16.82383 | 55.60131 | 33953 ft | 515 kts | 191° |
| 2026-04-16 05:59 | 16.75259 | 55.59240 | 33955 ft | 516 kts | 191° |
| 2026-04-16 06:00 | 16.68129 | 55.58349 | 33954 ft | 516 kts | 191° |
| 2026-04-16 06:00 | 16.61000 | 55.57457 | 33951 ft | 516 kts | 191° |
| 2026-04-16 06:01 | 16.53924 | 55.56573 | 33951 ft | 516 kts | 191° |
| 2026-04-16 06:01 | 16.46801 | 55.55683 | 33954 ft | 515 kts | 191° |
| 2026-04-16 06:02 | 16.36138 | 55.54352 | 33950 ft | 514 kts | 191° |
| 2026-04-16 06:02 | 16.29044 | 55.53468 | 33951 ft | 513 kts | 191° |
| 2026-04-16 06:03 | 16.22003 | 55.52591 | 33952 ft | 513 kts | 191° |
| 2026-04-16 06:03 | 16.14923 | 55.51709 | 33952 ft | 512 kts | 191° |
| 2026-04-16 06:04 | 16.07851 | 55.50829 | 33949 ft | 512 kts | 191° |
| 2026-04-16 06:04 | 16.00787 | 55.49951 | 33951 ft | 511 kts | 191° |
| 2026-04-16 06:05 | 15.93778 | 55.49080 | 33957 ft | 511 kts | 191° |
| 2026-04-16 06:05 | 15.86727 | 55.48204 | 33959 ft | 510 kts | 191° |
| 2026-04-16 06:06 | 15.79677 | 55.47330 | 33962 ft | 510 kts | 191° |
| 2026-04-16 06:06 | 15.72630 | 55.46456 | 33957 ft | 510 kts | 191° |
| 2026-04-16 06:07 | 15.65641 | 55.45590 | 33959 ft | 509 kts | 191° |
| 2026-04-16 06:07 | 15.58600 | 55.44718 | 33960 ft | 509 kts | 191° |
| 2026-04-16 06:08 | 15.51567 | 55.43848 | 33958 ft | 509 kts | 191° |
| 2026-04-16 06:08 | 15.44532 | 55.42977 | 33973 ft | 510 kts | 191° |
| 2026-04-16 06:09 | 15.40994 | 55.42539 | 34134 ft | 512 kts | 191° |
| 2026-04-16 06:09 | 15.37507 | 55.42109 | 34451 ft | 511 kts | 191° |
| 2026-04-16 06:09 | 15.33985 | 55.41675 | 34823 ft | 509 kts | 191° |
| 2026-04-16 06:09 | 15.30481 | 55.41243 | 35186 ft | 507 kts | 191° |
| 2026-04-16 06:10 | 15.26986 | 55.40811 | 35510 ft | 506 kts | 191° |
| 2026-04-16 06:10 | 15.23494 | 55.40380 | 35797 ft | 505 kts | 191° |
| 2026-04-16 06:10 | 15.16479 | 55.39512 | 36063 ft | 509 kts | 191° |
| 2026-04-16 06:11 | 15.12965 | 55.39074 | 36387 ft | 507 kts | 191° |
| 2026-04-16 06:11 | 15.09517 | 55.38642 | 36739 ft | 505 kts | 191° |
| 2026-04-16 06:11 | 15.06037 | 55.38207 | 37083 ft | 503 kts | 191° |
| 2026-04-16 06:11 | 15.02572 | 55.37772 | 37395 ft | 501 kts | 191° |
| 2026-04-16 06:12 | 14.99111 | 55.37338 | 37656 ft | 501 kts | 191° |
| 2026-04-16 06:12 | 14.95647 | 55.36904 | 37872 ft | 501 kts | 191° |
| 2026-04-16 06:12 | 14.88705 | 55.36033 | 37952 ft | 504 kts | 191° |
| 2026-04-16 06:13 | 14.81758 | 55.35166 | 37953 ft | 501 kts | 191° |
| 2026-04-16 06:13 | 14.74905 | 55.34312 | 37952 ft | 498 kts | 191° |
| 2026-04-16 06:14 | 14.68028 | 55.33453 | 37956 ft | 497 kts | 191° |
| 2026-04-16 06:14 | 14.61162 | 55.32596 | 37959 ft | 497 kts | 191° |
| 2026-04-16 06:15 | 14.54286 | 55.31739 | 37960 ft | 498 kts | 191° |
| 2026-04-16 06:15 | 14.47451 | 55.30887 | 37956 ft | 499 kts | 191° |
| 2026-04-16 06:16 | 14.40549 | 55.30027 | 37957 ft | 500 kts | 191° |
| 2026-04-16 06:16 | 14.33636 | 55.29167 | 37959 ft | 501 kts | 191° |
| 2026-04-16 06:17 | 14.26708 | 55.28306 | 37957 ft | 502 kts | 191° |
| 2026-04-16 06:17 | 14.19826 | 55.27451 | 37956 ft | 502 kts | 191° |
| 2026-04-16 06:18 | 14.12886 | 55.26590 | 37956 ft | 502 kts | 191° |
| 2026-04-16 06:18 | 14.05947 | 55.25728 | 37955 ft | 502 kts | 191° |
| 2026-04-16 06:19 | 13.99013 | 55.24868 | 37950 ft | 502 kts | 191° |
| 2026-04-16 06:19 | 13.92078 | 55.24008 | 37955 ft | 502 kts | 191° |
| 2026-04-16 06:20 | 13.85194 | 55.23150 | 37953 ft | 501 kts | 191° |
| 2026-04-16 06:20 | 13.78272 | 55.22277 | 37947 ft | 501 kts | 191° |
| 2026-04-16 06:21 | 13.71347 | 55.21404 | 37961 ft | 501 kts | 191° |
| 2026-04-16 06:21 | 13.64427 | 55.20533 | 37957 ft | 501 kts | 191° |
| 2026-04-16 06:22 | 13.57556 | 55.19669 | 37954 ft | 501 kts | 191° |
| 2026-04-16 06:22 | 13.50638 | 55.18800 | 37956 ft | 501 kts | 191° |
| 2026-04-16 06:23 | 13.43724 | 55.17933 | 37954 ft | 501 kts | 191° |
| 2026-04-16 06:23 | 13.36811 | 55.17065 | 37951 ft | 500 kts | 191° |
| 2026-04-16 06:24 | 13.29944 | 55.16205 | 37953 ft | 500 kts | 191° |
| 2026-04-16 06:24 | 13.23033 | 55.15338 | 37950 ft | 500 kts | 191° |
| 2026-04-16 06:25 | 13.16125 | 55.14473 | 37950 ft | 500 kts | 191° |
| 2026-04-16 06:25 | 13.09217 | 55.13609 | 37950 ft | 500 kts | 191° |
| 2026-04-16 06:26 | 13.02361 | 55.12751 | 37949 ft | 500 kts | 191° |
| 2026-04-16 06:26 | 12.95456 | 55.11888 | 37949 ft | 500 kts | 191° |
| 2026-04-16 06:27 | 12.88558 | 55.11026 | 37948 ft | 499 kts | 191° |
| 2026-04-16 06:27 | 12.81665 | 55.10165 | 37949 ft | 499 kts | 191° |
| 2026-04-16 06:28 | 12.74831 | 55.09312 | 37950 ft | 498 kts | 191° |
| 2026-04-16 06:28 | 12.67953 | 55.08454 | 37950 ft | 497 kts | 191° |
| 2026-04-16 06:29 | 12.61087 | 55.07598 | 37947 ft | 497 kts | 191° |
| 2026-04-16 06:29 | 12.54228 | 55.06743 | 37949 ft | 496 kts | 191° |
| 2026-04-16 06:30 | 12.47429 | 55.05896 | 37946 ft | 495 kts | 192° |
| 2026-04-16 06:30 | 12.40588 | 55.05045 | 37946 ft | 495 kts | 192° |
| 2026-04-16 06:31 | 12.33753 | 55.04194 | 37945 ft | 495 kts | 192° |
| 2026-04-16 06:31 | 12.26927 | 55.03345 | 37949 ft | 494 kts | 192° |
| 2026-04-16 06:32 | 12.20149 | 55.02503 | 37948 ft | 494 kts | 192° |
| 2026-04-16 06:32 | 12.13329 | 55.01655 | 37945 ft | 493 kts | 192° |
| 2026-04-16 06:33 | 12.06512 | 55.00809 | 37946 ft | 493 kts | 192° |
| 2026-04-16 06:33 | 11.99694 | 55.00009 | 37949 ft | 494 kts | 189° |
| 2026-04-16 06:34 | 11.92827 | 54.99907 | 37951 ft | 497 kts | 184° |
| 2026-04-16 06:34 | 11.85905 | 54.99969 | 37941 ft | 497 kts | 184° |
| 2026-04-16 06:35 | 11.78986 | 55.00002 | 37942 ft | 497 kts | 185° |
| 2026-04-16 06:35 | 11.72077 | 55.00005 | 37942 ft | 496 kts | 185° |
| 2026-04-16 06:36 | 11.65218 | 55.00001 | 37938 ft | 496 kts | 185° |
| 2026-04-16 06:36 | 11.58312 | 55.00000 | 37941 ft | 496 kts | 185° |
| 2026-04-16 06:37 | 11.51412 | 55.00000 | 37936 ft | 496 kts | 185° |
| 2026-04-16 06:37 | 11.44505 | 55.00000 | 37938 ft | 496 kts | 185° |
| 2026-04-16 06:38 | 11.37647 | 55.00000 | 37940 ft | 496 kts | 185° |
| 2026-04-16 06:38 | 11.30746 | 55.00000 | 37938 ft | 496 kts | 185° |
| 2026-04-16 06:39 | 11.23840 | 55.00000 | 37939 ft | 496 kts | 185° |
| 2026-04-16 06:39 | 11.16934 | 55.00000 | 37939 ft | 496 kts | 185° |
| 2026-04-16 06:40 | 11.10070 | 55.00000 | 37939 ft | 497 kts | 185° |
| 2026-04-16 06:40 | 11.03158 | 55.00000 | 37936 ft | 497 kts | 185° |
| 2026-04-16 06:41 | 10.96240 | 55.00000 | 37934 ft | 497 kts | 185° |
| 2026-04-16 06:41 | 10.89323 | 55.00000 | 37938 ft | 497 kts | 184° |
| 2026-04-16 06:42 | 10.82449 | 55.00000 | 37937 ft | 497 kts | 184° |
| 2026-04-16 06:42 | 10.75525 | 55.00000 | 37936 ft | 498 kts | 184° |
| 2026-04-16 06:43 | 10.68602 | 55.00000 | 37936 ft | 498 kts | 184° |
| 2026-04-16 06:43 | 10.61672 | 55.00000 | 37935 ft | 498 kts | 184° |
| 2026-04-16 06:44 | 10.54792 | 55.00000 | 37937 ft | 498 kts | 184° |
| 2026-04-16 06:44 | 10.47858 | 55.00000 | 37935 ft | 498 kts | 184° |
| 2026-04-16 06:45 | 10.40928 | 55.00000 | 37934 ft | 498 kts | 184° |
| 2026-04-16 06:45 | 10.33991 | 55.00000 | 37934 ft | 498 kts | 184° |
| 2026-04-16 06:46 | 10.27098 | 55.00000 | 37931 ft | 499 kts | 184° |
| 2026-04-16 06:46 | 10.20160 | 55.00000 | 37926 ft | 499 kts | 184° |
| 2026-04-16 06:47 | 10.13216 | 55.00000 | 37938 ft | 499 kts | 184° |
| 2026-04-16 06:47 | 10.06281 | 55.00000 | 37932 ft | 498 kts | 184° |
| 2026-04-16 06:48 | 9.99395 | 55.00000 | 37928 ft | 498 kts | 184° |
| 2026-04-16 06:48 | 9.92465 | 55.00000 | 37929 ft | 498 kts | 184° |
| 2026-04-16 06:49 | 9.85544 | 55.00000 | 37936 ft | 497 kts | 183° |
| 2026-04-16 06:49 | 9.78626 | 55.00000 | 37925 ft | 497 kts | 183° |
| 2026-04-16 06:50 | 9.71711 | 55.00000 | 37937 ft | 496 kts | 183° |
| 2026-04-16 06:50 | 9.64856 | 55.00000 | 37940 ft | 496 kts | 183° |
| 2026-04-16 06:51 | 9.57957 | 55.00000 | 37938 ft | 496 kts | 183° |
| 2026-04-16 06:51 | 9.53344 | 55.00000 | 37934 ft | 495 kts | 183° |
| 2026-04-16 06:52 | 9.48506 | 55.00000 | 37927 ft | 495 kts | 183° |
| 2026-04-16 06:52 | 9.41662 | 55.00000 | 37929 ft | 495 kts | 183° |
| 2026-04-16 06:53 | 9.34769 | 55.00000 | 37925 ft | 495 kts | 183° |
| 2026-04-16 06:53 | 9.27881 | 55.00000 | 37931 ft | 495 kts | 183° |
| 2026-04-16 06:54 | 9.20995 | 55.00000 | 37934 ft | 495 kts | 183° |
| 2026-04-16 06:54 | 9.14148 | 55.00000 | 37919 ft | 495 kts | 183° |
| 2026-04-16 06:55 | 9.07260 | 55.00000 | 37926 ft | 495 kts | 183° |
| 2026-04-16 06:55 | 9.00360 | 55.00000 | 37928 ft | 496 kts | 183° |
| 2026-04-16 06:56 | 8.93464 | 55.00000 | 37917 ft | 496 kts | 183° |
| 2026-04-16 06:56 | 8.86566 | 55.00000 | 37932 ft | 496 kts | 183° |
| 2026-04-16 06:57 | 8.79708 | 55.00000 | 37925 ft | 496 kts | 183° |
| 2026-04-16 06:57 | 8.72796 | 55.00000 | 37919 ft | 496 kts | 183° |
| 2026-04-16 06:58 | 8.65884 | 55.00000 | 37914 ft | 497 kts | 183° |
| 2026-04-16 06:58 | 8.58978 | 55.00000 | 37921 ft | 497 kts | 183° |
| 2026-04-16 06:59 | 8.52108 | 55.00000 | 37930 ft | 497 kts | 183° |
| 2026-04-16 06:59 | 8.45194 | 55.00000 | 37924 ft | 497 kts | 183° |
| 2026-04-16 07:00 | 8.38270 | 55.00000 | 37917 ft | 497 kts | 183° |
| 2026-04-16 07:01 | 8.27882 | 55.00000 | 37919 ft | 498 kts | 183° |
| 2026-04-16 07:01 | 8.21000 | 55.00000 | 37922 ft | 498 kts | 183° |
| 2026-04-16 07:02 | 8.14061 | 55.00000 | 37926 ft | 499 kts | 183° |
| 2026-04-16 07:02 | 8.07119 | 55.00000 | 37917 ft | 499 kts | 183° |
| 2026-04-16 07:03 | 8.00171 | 55.00000 | 37919 ft | 500 kts | 183° |
| 2026-04-16 07:03 | 7.93254 | 55.00000 | 37922 ft | 500 kts | 183° |
| 2026-04-16 07:04 | 7.86287 | 55.00000 | 37913 ft | 501 kts | 182° |
| 2026-04-16 07:04 | 7.79307 | 55.00000 | 37913 ft | 502 kts | 182° |
| 2026-04-16 07:05 | 7.72330 | 55.00000 | 37914 ft | 502 kts | 182° |
| 2026-04-16 07:05 | 7.65338 | 55.00000 | 37920 ft | 502 kts | 182° |
| 2026-04-16 07:06 | 7.58394 | 55.00000 | 37914 ft | 502 kts | 182° |
| 2026-04-16 07:06 | 7.51401 | 55.00000 | 37914 ft | 503 kts | 182° |
| 2026-04-16 07:07 | 7.44409 | 55.00000 | 37908 ft | 503 kts | 182° |
| 2026-04-16 07:07 | 7.37461 | 55.00000 | 37906 ft | 503 kts | 182° |
| 2026-04-16 07:08 | 7.30468 | 55.00000 | 37909 ft | 502 kts | 182° |
| 2026-04-16 07:08 | 7.23484 | 55.00000 | 37906 ft | 502 kts | 182° |
| 2026-04-16 07:09 | 7.16496 | 55.00000 | 37910 ft | 502 kts | 182° |
| 2026-04-16 07:09 | 7.09562 | 55.00000 | 37911 ft | 501 kts | 182° |
| 2026-04-16 07:10 | 7.02589 | 55.00000 | 37909 ft | 501 kts | 182° |
| 2026-04-16 07:10 | 6.95620 | 55.00000 | 37908 ft | 501 kts | 182° |
| 2026-04-16 07:11 | 6.88660 | 55.00000 | 37912 ft | 500 kts | 182° |
| 2026-04-16 07:11 | 6.81751 | 55.00000 | 37906 ft | 499 kts | 182° |
| 2026-04-16 07:12 | 6.74806 | 55.00000 | 37907 ft | 499 kts | 183° |
| 2026-04-16 07:12 | 6.67873 | 55.00000 | 37907 ft | 498 kts | 183° |
| 2026-04-16 07:13 | 6.60953 | 55.00000 | 37905 ft | 497 kts | 183° |
| 2026-04-16 07:13 | 6.54049 | 55.00000 | 37906 ft | 496 kts | 183° |
| 2026-04-16 07:14 | 6.47206 | 55.00000 | 37906 ft | 495 kts | 183° |
| 2026-04-16 07:14 | 6.40330 | 55.00000 | 37908 ft | 494 kts | 183° |
| 2026-04-16 07:15 | 6.33464 | 55.00000 | 37906 ft | 493 kts | 183° |
| 2026-04-16 07:15 | 6.26650 | 55.00000 | 37901 ft | 493 kts | 183° |
| 2026-04-16 07:16 | 6.19796 | 55.00000 | 37909 ft | 492 kts | 183° |
| 2026-04-16 07:16 | 6.12949 | 55.00000 | 37907 ft | 492 kts | 183° |
| 2026-04-16 07:17 | 6.06094 | 55.00000 | 37907 ft | 492 kts | 183° |
| 2026-04-16 07:17 | 5.99240 | 55.00000 | 37903 ft | 493 kts | 183° |
| 2026-04-16 07:18 | 5.92431 | 55.00000 | 37905 ft | 493 kts | 183° |
| 2026-04-16 07:18 | 5.85568 | 55.00000 | 37907 ft | 493 kts | 183° |
| 2026-04-16 07:19 | 5.78705 | 55.00000 | 37906 ft | 494 kts | 183° |
| 2026-04-16 07:19 | 5.71832 | 55.00000 | 37908 ft | 494 kts | 183° |
| 2026-04-16 07:20 | 5.65005 | 55.00000 | 37907 ft | 494 kts | 183° |
| 2026-04-16 07:20 | 5.58128 | 55.00000 | 37905 ft | 494 kts | 182° |
| 2026-04-16 07:21 | 5.51250 | 55.00000 | 37903 ft | 494 kts | 182° |
| 2026-04-16 07:21 | 5.44375 | 55.00000 | 37907 ft | 494 kts | 182° |
| 2026-04-16 07:22 | 5.37542 | 55.00104 | 37902 ft | 495 kts | 179° |
| 2026-04-16 07:22 | 5.30671 | 55.00600 | 37909 ft | 495 kts | 178° |
| 2026-04-16 07:23 | 5.23794 | 55.01150 | 37900 ft | 495 kts | 178° |
| 2026-04-16 07:23 | 5.16928 | 55.01678 | 37902 ft | 495 kts | 178° |
| 2026-04-16 07:24 | 5.10109 | 55.02183 | 37902 ft | 495 kts | 178° |
| 2026-04-16 07:24 | 5.03242 | 55.02686 | 37905 ft | 494 kts | 178° |
| 2026-04-16 07:25 | 4.96379 | 55.03190 | 37905 ft | 494 kts | 178° |
| 2026-04-16 07:25 | 4.89520 | 55.03695 | 37901 ft | 494 kts | 178° |
| 2026-04-16 07:26 | 4.82709 | 55.04196 | 37898 ft | 494 kts | 178° |
| 2026-04-16 07:26 | 4.75859 | 55.04700 | 37899 ft | 494 kts | 178° |
| 2026-04-16 07:27 | 4.68996 | 55.05205 | 37901 ft | 494 kts | 178° |
| 2026-04-16 07:27 | 4.62137 | 55.05709 | 37903 ft | 494 kts | 178° |
| 2026-04-16 07:28 | 4.55319 | 55.06211 | 37900 ft | 495 kts | 178° |
| 2026-04-16 07:28 | 4.48451 | 55.06715 | 37900 ft | 495 kts | 178° |
| 2026-04-16 07:29 | 4.41585 | 55.07220 | 37899 ft | 495 kts | 178° |
| 2026-04-16 07:29 | 4.34709 | 55.07726 | 37900 ft | 495 kts | 178° |
| 2026-04-16 07:30 | 4.27835 | 55.08231 | 37898 ft | 496 kts | 178° |
| 2026-04-16 07:30 | 4.21000 | 55.08733 | 37901 ft | 496 kts | 178° |
| 2026-04-16 07:31 | 4.14117 | 55.09239 | 37900 ft | 496 kts | 178° |
| 2026-04-16 07:31 | 4.07221 | 55.09745 | 37900 ft | 497 kts | 178° |
| 2026-04-16 07:32 | 4.00328 | 55.10250 | 37900 ft | 497 kts | 178° |
| 2026-04-16 07:32 | 3.93479 | 55.10751 | 37897 ft | 497 kts | 178° |
| 2026-04-16 07:33 | 3.86582 | 55.11256 | 37900 ft | 497 kts | 178° |
| 2026-04-16 07:33 | 3.79689 | 55.11760 | 37902 ft | 497 kts | 178° |
| 2026-04-16 07:34 | 3.72792 | 55.12265 | 37902 ft | 497 kts | 178° |
| 2026-04-16 07:34 | 3.65898 | 55.12770 | 37901 ft | 497 kts | 178° |
| 2026-04-16 07:35 | 3.59051 | 55.13271 | 37902 ft | 497 kts | 178° |
| 2026-04-16 07:35 | 3.52164 | 55.13775 | 37900 ft | 496 kts | 178° |
| 2026-04-16 07:36 | 3.45274 | 55.14279 | 37902 ft | 496 kts | 178° |
| 2026-04-16 07:36 | 3.38386 | 55.14783 | 37901 ft | 496 kts | 178° |
| 2026-04-16 07:37 | 3.31546 | 55.15283 | 37904 ft | 496 kts | 178° |
| 2026-04-16 07:37 | 3.24657 | 55.15787 | 37901 ft | 496 kts | 178° |
| 2026-04-16 07:38 | 3.17769 | 55.16290 | 37902 ft | 496 kts | 178° |
| 2026-04-16 07:38 | 3.10924 | 55.16791 | 37903 ft | 497 kts | 178° |
| 2026-04-16 07:39 | 3.04037 | 55.17294 | 37902 ft | 497 kts | 178° |
| 2026-04-16 07:39 | 2.97139 | 55.17798 | 37900 ft | 497 kts | 178° |
| 2026-04-16 07:40 | 2.90243 | 55.18302 | 37902 ft | 497 kts | 178° |
| 2026-04-16 07:40 | 2.83339 | 55.18807 | 37902 ft | 497 kts | 178° |
| 2026-04-16 07:41 | 2.76490 | 55.19307 | 37902 ft | 497 kts | 178° |
| 2026-04-16 07:41 | 2.69582 | 55.19812 | 37905 ft | 498 kts | 178° |
| 2026-04-16 07:42 | 2.62672 | 55.20316 | 37904 ft | 498 kts | 178° |
| 2026-04-16 07:42 | 2.56928 | 55.20736 | 37900 ft | 498 kts | 178° |
| 2026-04-16 07:43 | 2.50011 | 55.21241 | 37901 ft | 499 kts | 178° |
| 2026-04-16 07:43 | 2.41963 | 55.21829 | 37902 ft | 499 kts | 178° |
| 2026-04-16 07:44 | 2.35035 | 55.22334 | 37904 ft | 500 kts | 178° |
| 2026-04-16 07:44 | 2.29270 | 55.22755 | 37904 ft | 500 kts | 178° |
| 2026-04-16 07:45 | 2.22331 | 55.23262 | 37903 ft | 500 kts | 178° |
| 2026-04-16 07:45 | 2.15387 | 55.23769 | 37902 ft | 500 kts | 178° |
| 2026-04-16 07:46 | 2.08491 | 55.24272 | 37901 ft | 501 kts | 178° |
| 2026-04-16 07:46 | 2.01539 | 55.24779 | 37903 ft | 501 kts | 178° |
| 2026-04-16 07:47 | 1.94592 | 55.25286 | 37898 ft | 501 kts | 178° |
| 2026-04-16 07:47 | 1.87640 | 55.25794 | 37899 ft | 501 kts | 178° |
| 2026-04-16 07:48 | 1.80690 | 55.26301 | 37897 ft | 501 kts | 178° |
| 2026-04-16 07:48 | 1.73781 | 55.26805 | 37899 ft | 501 kts | 178° |
| 2026-04-16 07:49 | 1.66830 | 55.27312 | 37902 ft | 501 kts | 178° |
| 2026-04-16 07:49 | 1.59872 | 55.27820 | 37902 ft | 501 kts | 178° |
| 2026-04-16 07:50 | 1.52911 | 55.28327 | 37900 ft | 501 kts | 178° |
| 2026-04-16 07:50 | 1.45997 | 55.28832 | 37901 ft | 502 kts | 178° |
| 2026-04-16 07:51 | 1.39035 | 55.29340 | 37902 ft | 502 kts | 178° |
| 2026-04-16 07:51 | 1.32072 | 55.29828 | 37903 ft | 501 kts | 180° |
| 2026-04-16 07:52 | 1.25103 | 55.30042 | 37898 ft | 501 kts | 181° |
| 2026-04-16 07:52 | 1.18132 | 55.30151 | 37900 ft | 501 kts | 181° |
| 2026-04-16 07:53 | 1.11201 | 55.30288 | 37902 ft | 501 kts | 181° |
| 2026-04-16 07:53 | 1.04226 | 55.30459 | 37898 ft | 502 kts | 181° |
| 2026-04-16 07:54 | 0.97244 | 55.30642 | 37900 ft | 502 kts | 181° |
| 2026-04-16 07:54 | 0.90251 | 55.30824 | 37900 ft | 502 kts | 181° |
| 2026-04-16 07:55 | 0.83312 | 55.31003 | 37900 ft | 503 kts | 181° |
| 2026-04-16 07:55 | 0.76314 | 55.31183 | 37898 ft | 503 kts | 181° |
| 2026-04-16 07:56 | 0.69317 | 55.31362 | 37897 ft | 503 kts | 181° |
| 2026-04-16 07:56 | 0.62320 | 55.31541 | 37896 ft | 503 kts | 181° |
| 2026-04-16 07:57 | 0.55366 | 55.31720 | 37896 ft | 503 kts | 181° |
| 2026-04-16 07:57 | 0.48361 | 55.31900 | 37892 ft | 503 kts | 181° |
| 2026-04-16 07:58 | 0.41355 | 55.32079 | 37891 ft | 504 kts | 181° |
| 2026-04-16 07:58 | 0.34351 | 55.32259 | 37892 ft | 504 kts | 181° |
| 2026-04-16 07:59 | 0.27392 | 55.32438 | 37891 ft | 504 kts | 181° |
| 2026-04-16 07:59 | 0.20382 | 55.32617 | 37896 ft | 504 kts | 181° |
| 2026-04-16 08:00 | 0.13370 | 55.32797 | 37899 ft | 504 kts | 181° |
| 2026-04-16 08:00 | 0.06360 | 55.32977 | 37886 ft | 504 kts | 181° |
| 2026-04-16 08:01 | -0.00654 | 55.33157 | 37894 ft | 504 kts | 181° |
| 2026-04-16 08:01 | -0.07619 | 55.33336 | 37887 ft | 504 kts | 181° |
| 2026-04-16 08:02 | -0.14640 | 55.33516 | 37885 ft | 504 kts | 181° |
| 2026-04-16 08:02 | -0.25170 | 55.33786 | 37888 ft | 505 kts | 182° |
| 2026-04-16 08:03 | -0.32143 | 55.33965 | 37896 ft | 505 kts | 182° |
| 2026-04-16 08:03 | -0.39166 | 55.34145 | 37892 ft | 505 kts | 182° |
| 2026-04-16 08:04 | -0.46189 | 55.34325 | 37888 ft | 505 kts | 182° |
| 2026-04-16 08:04 | -0.53217 | 55.34505 | 37889 ft | 505 kts | 182° |
| 2026-04-16 08:05 | -0.60192 | 55.34685 | 37889 ft | 505 kts | 182° |
| 2026-04-16 08:05 | -0.67213 | 55.34865 | 37891 ft | 505 kts | 182° |
| 2026-04-16 08:06 | -0.74233 | 55.35045 | 37891 ft | 505 kts | 182° |
| 2026-04-16 08:06 | -0.81254 | 55.35225 | 37890 ft | 504 kts | 182° |
| 2026-04-16 08:07 | -0.88265 | 55.35405 | 37890 ft | 504 kts | 182° |
| 2026-04-16 08:07 | -0.95228 | 55.35584 | 37888 ft | 504 kts | 182° |
| 2026-04-16 08:08 | -1.02236 | 55.35763 | 37889 ft | 503 kts | 182° |
| 2026-04-16 08:08 | -1.09234 | 55.35943 | 37888 ft | 503 kts | 181° |
| 2026-04-16 08:09 | -1.16231 | 55.36123 | 37888 ft | 503 kts | 181° |
| 2026-04-16 08:09 | -1.23180 | 55.36301 | 37886 ft | 503 kts | 181° |
| 2026-04-16 08:10 | -1.30174 | 55.36480 | 37887 ft | 502 kts | 181° |
| 2026-04-16 08:10 | -1.37160 | 55.36660 | 37890 ft | 502 kts | 181° |
| 2026-04-16 08:11 | -1.44144 | 55.36839 | 37893 ft | 502 kts | 181° |
| 2026-04-16 08:11 | -1.51070 | 55.37017 | 37885 ft | 502 kts | 181° |
| 2026-04-16 08:12 | -1.58051 | 55.37196 | 37889 ft | 502 kts | 181° |
| 2026-04-16 08:12 | -1.65035 | 55.37375 | 37885 ft | 502 kts | 181° |
| 2026-04-16 08:13 | -1.72018 | 55.37554 | 37882 ft | 502 kts | 181° |
| 2026-04-16 08:13 | -1.78999 | 55.37734 | 37885 ft | 502 kts | 181° |
| 2026-04-16 08:14 | -1.85943 | 55.37912 | 37881 ft | 502 kts | 181° |
| 2026-04-16 08:14 | -1.92931 | 55.38092 | 37882 ft | 503 kts | 181° |
| 2026-04-16 08:15 | -1.99929 | 55.38271 | 37882 ft | 503 kts | 181° |
| 2026-04-16 08:15 | -2.06921 | 55.38451 | 37883 ft | 503 kts | 181° |
| 2026-04-16 08:16 | -2.13872 | 55.38630 | 37882 ft | 503 kts | 181° |
| 2026-04-16 08:16 | -2.20870 | 55.38833 | 37881 ft | 503 kts | 181° |
| 2026-04-16 08:17 | -2.27874 | 55.39105 | 37889 ft | 504 kts | 181° |
| 2026-04-16 08:17 | -2.34877 | 55.39385 | 37884 ft | 504 kts | 181° |
| 2026-04-16 08:19 | -2.62833 | 55.40446 | 37880 ft | 503 kts | 181° |
| 2026-04-16 08:20 | -2.69830 | 55.40710 | 37880 ft | 503 kts | 181° |
| 2026-04-16 08:20 | -2.76773 | 55.40973 | 37889 ft | 503 kts | 181° |
| 2026-04-16 08:21 | -2.83761 | 55.41237 | 37876 ft | 502 kts | 181° |
| 2026-04-16 08:21 | -2.90749 | 55.41501 | 37884 ft | 502 kts | 181° |
| 2026-04-16 08:22 | -2.97731 | 55.41765 | 37873 ft | 502 kts | 181° |
| 2026-04-16 08:22 | -3.04660 | 55.42027 | 37877 ft | 502 kts | 181° |
| 2026-04-16 08:23 | -3.11638 | 55.42291 | 37871 ft | 501 kts | 181° |
| 2026-04-16 08:23 | -3.18611 | 55.42555 | 37879 ft | 501 kts | 181° |
| 2026-04-16 08:24 | -3.25576 | 55.42818 | 37887 ft | 501 kts | 181° |
| 2026-04-16 08:24 | -3.32496 | 55.43080 | 37663 ft | 502 kts | 181° |
| 2026-04-16 08:25 | -3.36016 | 55.43212 | 36903 ft | 504 kts | 181° |
| 2026-04-16 08:25 | -3.39468 | 55.43345 | 36163 ft | 491 kts | 181° |
| 2026-04-16 08:25 | -3.42847 | 55.43476 | 35297 ft | 482 kts | 181° |
| 2026-04-16 08:25 | -3.46185 | 55.43604 | 34390 ft | 477 kts | 181° |
| 2026-04-16 08:26 | -3.49485 | 55.43729 | 33694 ft | 475 kts | 181° |
| 2026-04-16 08:26 | -3.52803 | 55.43851 | 32969 ft | 479 kts | 180° |
| 2026-04-16 08:26 | -3.56110 | 55.43975 | 32216 ft | 473 kts | 180° |
| 2026-04-16 08:26 | -3.59383 | 55.44099 | 31497 ft | 468 kts | 180° |
| 2026-04-16 08:27 | -3.62578 | 55.44220 | 30805 ft | 464 kts | 180° |
| 2026-04-16 08:27 | -3.65790 | 55.44342 | 30119 ft | 460 kts | 180° |
| 2026-04-16 08:27 | -3.68977 | 55.44463 | 29366 ft | 457 kts | 180° |
| 2026-04-16 08:27 | -3.72139 | 55.44582 | 28591 ft | 453 kts | 180° |
| 2026-04-16 08:28 | -3.75278 | 55.44701 | 27830 ft | 450 kts | 180° |
| 2026-04-16 08:28 | -3.78395 | 55.44819 | 27106 ft | 446 kts | 180° |
| 2026-04-16 08:28 | -3.81486 | 55.44936 | 26392 ft | 443 kts | 180° |
| 2026-04-16 08:28 | -3.84556 | 55.45052 | 25688 ft | 440 kts | 179° |
| 2026-04-16 08:29 | -3.87555 | 55.45166 | 25026 ft | 436 kts | 179° |
| 2026-04-16 08:29 | -3.90580 | 55.45280 | 24360 ft | 433 kts | 179° |
| 2026-04-16 08:29 | -3.93580 | 55.45394 | 23704 ft | 430 kts | 179° |
| 2026-04-16 08:29 | -3.96554 | 55.45506 | 22988 ft | 426 kts | 179° |
| 2026-04-16 08:30 | -3.99506 | 55.45618 | 22229 ft | 422 kts | 179° |
| 2026-04-16 08:30 | -4.02426 | 55.45728 | 21489 ft | 418 kts | 178° |
| 2026-04-16 08:30 | -4.05321 | 55.45838 | 20768 ft | 414 kts | 178° |
| 2026-04-16 08:30 | -4.08141 | 55.45945 | 20075 ft | 409 kts | 178° |
| 2026-04-16 08:31 | -4.10967 | 55.46052 | 19421 ft | 404 kts | 177° |
| 2026-04-16 08:31 | -4.13751 | 55.46217 | 18780 ft | 398 kts | 170° |
| 2026-04-16 08:31 | -4.16322 | 55.47110 | 18198 ft | 388 kts | 148° |
| 2026-04-16 08:31 | -4.18411 | 55.48754 | 17637 ft | 377 kts | 132° |
| 2026-04-16 08:32 | -4.19677 | 55.50355 | 17168 ft | 370 kts | 120° |
| 2026-04-16 08:32 | -4.20903 | 55.52609 | 16630 ft | 369 kts | 116° |
| 2026-04-16 08:32 | -4.22040 | 55.54873 | 16091 ft | 370 kts | 115° |
| 2026-04-16 08:33 | -4.22426 | 55.55654 | 15900 ft | 370 kts | 115° |
| 2026-04-16 08:33 | -4.22923 | 55.56660 | 15675 ft | 369 kts | 115° |
| 2026-04-16 08:33 | -4.24064 | 55.58960 | 15126 ft | 366 kts | 116° |
| 2026-04-16 08:33 | -4.25200 | 55.61228 | 14594 ft | 362 kts | 116° |
| 2026-04-16 08:34 | -4.26335 | 55.63471 | 14084 ft | 359 kts | 116° |
| 2026-04-16 08:34 | -4.27460 | 55.65678 | 13692 ft | 353 kts | 117° |
| 2026-04-16 08:34 | -4.28569 | 55.67847 | 13294 ft | 349 kts | 117° |
| 2026-04-16 08:34 | -4.29678 | 55.70011 | 12933 ft | 350 kts | 117° |
| 2026-04-16 08:35 | -4.30797 | 55.72192 | 12569 ft | 352 kts | 117° |
| 2026-04-16 08:35 | -4.31897 | 55.74337 | 12210 ft | 351 kts | 117° |
| 2026-04-16 08:35 | -4.33008 | 55.76502 | 11888 ft | 349 kts | 117° |
| 2026-04-16 08:35 | -4.34114 | 55.78658 | 11876 ft | 347 kts | 117° |
| 2026-04-16 08:36 | -4.35217 | 55.80809 | 11862 ft | 348 kts | 117° |
| 2026-04-16 08:36 | -4.36324 | 55.82968 | 11857 ft | 348 kts | 117° |
| 2026-04-16 08:36 | -4.37429 | 55.85123 | 11863 ft | 348 kts | 117° |
| 2026-04-16 08:36 | -4.38548 | 55.87303 | 11872 ft | 355 kts | 117° |
| 2026-04-16 08:37 | -4.39699 | 55.89389 | 11841 ft | 337 kts | 126° |
| 2026-04-16 08:37 | -4.41364 | 55.90935 | 11856 ft | 321 kts | 149° |
| 2026-04-16 08:37 | -4.43388 | 55.91713 | 11850 ft | 307 kts | 169° |
| 2026-04-16 08:37 | -4.45520 | 55.91787 | 11863 ft | 309 kts | 186° |
| 2026-04-16 08:38 | -4.47629 | 55.91347 | 11561 ft | 310 kts | 198° |
| 2026-04-16 08:38 | -4.49500 | 55.90302 | 10953 ft | 310 kts | 219° |
| 2026-04-16 08:38 | -4.51104 | 55.88893 | 10412 ft | 303 kts | 221° |
| 2026-04-16 08:38 | -4.52656 | 55.87496 | 9865 ft | 297 kts | 222° |
| 2026-04-16 08:39 | -4.54183 | 55.86125 | 9252 ft | 291 kts | 221° |
| 2026-04-16 08:39 | -4.55673 | 55.84796 | 8655 ft | 282 kts | 221° |
| 2026-04-16 08:39 | -4.57102 | 55.83529 | 8071 ft | 274 kts | 221° |
| 2026-04-16 08:39 | -4.58514 | 55.82283 | 7474 ft | 267 kts | 221° |
| 2026-04-16 08:40 | -4.59896 | 55.81067 | 6916 ft | 262 kts | 221° |
| 2026-04-16 08:40 | -4.61254 | 55.79874 | 6358 ft | 257 kts | 221° |
| 2026-04-16 08:40 | -4.62586 | 55.78705 | 5775 ft | 253 kts | 221° |
| 2026-04-16 08:40 | -4.63899 | 55.77553 | 5191 ft | 249 kts | 221° |
| 2026-04-16 08:41 | -4.65188 | 55.76423 | 4724 ft | 240 kts | 221° |
| 2026-04-16 08:41 | -4.66381 | 55.75378 | 4517 ft | 222 kts | 221° |
| 2026-04-16 08:41 | -4.67512 | 55.74387 | 4503 ft | 215 kts | 221° |
| 2026-04-16 08:41 | -4.68660 | 55.73381 | 4495 ft | 222 kts | 221° |
| 2026-04-16 08:42 | -4.69840 | 55.72392 | 4439 ft | 220 kts | 217° |
| 2026-04-16 08:42 | -4.71097 | 55.71522 | 4196 ft | 220 kts | 214° |
| 2026-04-16 08:42 | -4.72391 | 55.70653 | 3735 ft | 229 kts | 214° |
| 2026-04-16 08:42 | -4.73713 | 55.69760 | 3251 ft | 227 kts | 214° |
| 2026-04-16 08:43 | -4.75013 | 55.68876 | 2725 ft | 224 kts | 214° |
| 2026-04-16 08:43 | -4.76180 | 55.67917 | 2239 ft | 216 kts | 235° |
| 2026-04-16 08:43 | -4.76622 | 55.66540 | 2032 ft | 203 kts | 274° |
| 2026-04-16 08:43 | -4.76190 | 55.65244 | 2003 ft | 203 kts | 298° |
| 2026-04-16 08:44 | -4.75525 | 55.63997 | 1971 ft | 197 kts | 298° |
| 2026-04-16 08:44 | -4.74856 | 55.62858 | 1972 ft | 184 kts | 303° |
| 2026-04-16 08:44 | -4.74154 | 55.61823 | 1940 ft | 174 kts | 305° |
| 2026-04-16 08:44 | -4.73472 | 55.60844 | 1741 ft | 170 kts | 305° |
| 2026-04-16 08:45 | -4.72803 | 55.59885 | 1542 ft | 167 kts | 305° |
| 2026-04-16 08:45 | -4.72136 | 55.58928 | 1321 ft | 168 kts | 305° |
| 2026-04-16 08:45 | -4.71497 | 55.58011 | 1113 ft | 157 kts | 305° |
| 2026-04-16 08:45 | -4.70885 | 55.57131 | 907 ft | 153 kts | 305° |
| 2026-04-16 08:46 | -4.70271 | 55.56250 | 751 ft | 156 kts | 306° |
| 2026-04-16 08:46 | -4.69660 | 55.55372 | 530 ft | 151 kts | 306° |
| 2026-04-16 08:46 | -4.69059 | 55.54515 | 368 ft | 152 kts | 306° |
| 2026-04-16 08:46 | -4.68454 | 55.53649 | 150 ft | 150 kts | 306° |
| 2026-04-16 08:47 | -4.67859 | 55.52795 | 37 ft | 146 kts | 306° |
| 2026-04-16 08:47 | -4.67332 | 55.52046 | 29 ft | 111 kts | 305° |
| 2026-04-16 08:47 | -4.66998 | 55.51566 | 28 ft | 59 kts | 305° |
| 2026-04-16 08:47 | -4.66901 | 55.51378 | 28 ft | 18 kts | 250° |
| 2026-04-16 08:48 | -4.66997 | 55.51306 | 30 ft | 18 kts | 219° |
| 2026-04-16 08:48 | -4.67053 | 55.51224 | 27 ft | 0 kts | 242° |